Elk Springs, Colorado
Current Conditions -  °F | °C
As of 1:53 PM on Thursday 18 Dec 2014 (Local Time) from KEEO Reporting Station
Light Snow Light Snow  
Wind Chill: 30°   Ceiling: 3400
Heat Index: 30°   Visibility: 5mi
Dew Point: 25°   Wind: 0mph
Humidity: 82%   Direction: NA
Pressure: 30.1"   Gusts: NA
Location:  40.3181°N, 108.361°W
Report Text: KEEO 182053Z AUTO 00000KT 5SM -SN BKN034 BKN042 OVC060 M01/M04 A3010 RMK AO2 SNB00E09B47 SLP214 P0000 60001 T10111039 56012
Loading
Personal Weather Stations






























Interactive Weather Map New forecast layout! Learn more

10-Day Weather Forecast

Advertisements
Track Severe Weather on mobile